Cherokee — 9HBC7 — position and weather

sailwx.info

Track history (hours):
 
Tides and Currents Weather Stations Pressure Air Temp Water Temp Dewpoint Dewpoint Depression Visibility Wind Speed Wind Dir Waves Ship Positions

Cherokee

Last reported at 2016-Dec-06 11:33 UTC. Time now 2016-Dec-08 11:49 UTC.
Position N 45°11' E 036°28'.

Length 140 m; draft 3.8 m.

Type: Cargo ship. MMSI: 215059000.

Date/timePositionNaut miles runAvg speedWind from/ knotsBaromVisibWave heightAir tempDewpointWater temp
2016-Dec-06 11:33N 45°11' E 036°28'6 5.6
2016-Dec-06 10:34N 45°17' E 036°29'5 4.9
2016-Dec-06 09:33N 45°20' E 036°34'5 5.0
2016-Dec-06 08:34N 45°23' E 036°40'5 4.8
2016-Dec-06 07:34N 45°27' E 036°42'4 4.1
2016-Dec-06 06:33N 45°31' E 036°44'5 5.4
2016-Dec-06 05:33N 45°36' E 036°46'  
2016-Nov-28 23:33N 45°30' E 036°44'7 6.5
2016-Nov-28 22:34N 45°24' E 036°41'6 5.7
2016-Nov-28 21:33N 45°20' E 036°35'6 5.7
2016-Nov-28 20:33N 45°16' E 036°29'2 2.0
2016-Nov-28 19:33N 45°14' E 036°30'0 0.0
2016-Nov-28 18:33N 45°14' E 036°30'0 0.0
2016-Nov-28 17:33N 45°14' E 036°30'0 0.0
2016-Nov-28 16:34N 45°14' E 036°30'0 0.0
2016-Nov-28 15:33N 45°14' E 036°30'0 0.1
2016-Nov-28 14:33N 45°14' E 036°30'0 0.0
2016-Nov-28 13:34N 45°14' E 036°30'0 0.0
2016-Nov-28 12:33N 45°14' E 036°30'3 2.6
2016-Nov-28 11:33N 45°12' E 036°28'7 7.2
2016-Nov-28 10:32N 45°05' E 036°31'  
Track history (hours):
 
Tides and Currents Weather Stations Pressure Air Temp Water Temp Dewpoint Dewpoint Depression Visibility Wind Speed Wind Dir Waves Ship Positions

Cherokee

Last reported at 2016-Dec-06 11:33 UTC. Time now 2016-Dec-08 11:49 UTC.
Position N 45°11' E 036°28'.

Length 140 m; draft 3.8 m.

Type: Cargo ship. MMSI: 215059000.

Date/timePositionNaut miles runAvg speedWind from/ knotsBaromVisibWave heightAir tempDewpointWater temp
2016-Dec-06 11:33N 45°11' E 036°28'6 5.6
2016-Dec-06 10:34N 45°17' E 036°29'5 4.9
2016-Dec-06 09:33N 45°20' E 036°34'5 5.0
2016-Dec-06 08:34N 45°23' E 036°40'5 4.8
2016-Dec-06 07:34N 45°27' E 036°42'4 4.1
2016-Dec-06 06:33N 45°31' E 036°44'5 5.4
2016-Dec-06 05:33N 45°36' E 036°46'  
2016-Nov-28 23:33N 45°30' E 036°44'7 6.5
2016-Nov-28 22:34N 45°24' E 036°41'6 5.7
2016-Nov-28 21:33N 45°20' E 036°35'6 5.7
2016-Nov-28 20:33N 45°16' E 036°29'2 2.0
2016-Nov-28 19:33N 45°14' E 036°30'0 0.0
2016-Nov-28 18:33N 45°14' E 036°30'0 0.0
2016-Nov-28 17:33N 45°14' E 036°30'0 0.0
2016-Nov-28 16:34N 45°14' E 036°30'0 0.0
2016-Nov-28 15:33N 45°14' E 036°30'0 0.1
2016-Nov-28 14:33N 45°14' E 036°30'0 0.0
2016-Nov-28 13:34N 45°14' E 036°30'0 0.0
2016-Nov-28 12:33N 45°14' E 036°30'3 2.6
2016-Nov-28 11:33N 45°12' E 036°28'7 7.2
2016-Nov-28 10:32N 45°05' E 036°31'  

Dump ship's entire track history